Terminal Aerodrome Forecast
Issued by NWS

Current Version | Previous Version | Graphics & Text | Print | Product List | Glossary On
Versions: 1 2 3 4 5 6 7 8 9 10 11 12 13 14 15 16 17
000
FTUS41 KPBZ 240523
TAFMGW
TAF
KMGW 240523Z 2406/2506 11010KT P6SM -RA OVC070
     FM241200 12012G21KT 5SM -RA OVC040
     FM242000 10014G24KT 6SM -RA OVC035
     FM242300 10011G20KT P6SM VCSH OVC030
     FM250300 11010KT P6SM VCSH BKN025=

USA.gov is the U.S. government's official web portal to all federal, state and local government web resources and services.